McArthur, Ohio
Current Conditions -  °F | °C
As of 5:15 AM on Saturday 20 Dec 2014 (Local Time) from KUNI Reporting Station
Overcast Overcast  
Wind Chill: 30°   Ceiling: 1900
Heat Index: 30°   Visibility: 10mi
Dew Point: 23°   Wind: 0mph
Humidity: 76%   Direction: NA
Pressure: 30.26"   Gusts: NA
Location:  39.25°N, 82.48°W
Report Text: KUNI 201015Z AUTO 00000KT 10SM OVC019 M01/M05 A3026 RMK AO2 T10131050
Loading
Personal Weather Stations






























Interactive Weather Map New forecast layout! Learn more

10-Day Weather Forecast

Advertisements
Track Severe Weather on mobile